createdAt,value
2022-12-25T00:00:41.876Z,100678.94
2022-12-25T00:03:08.523Z,100677.66
2022-12-25T00:05:38.594Z,100671.63
2022-12-25T00:08:06.428Z,100675.28
2022-12-25T00:10:33.583Z,100662.13
2022-12-25T00:13:00.073Z,100652.28
2022-12-25T00:15:26.633Z,100651.31
2022-12-25T00:17:53.145Z,100647.72
2022-12-25T00:20:19.681Z,100638.28
2022-12-25T00:22:46.238Z,100637.28
2022-12-25T00:25:12.810Z,100633.09
2022-12-25T00:27:39.614Z,100634.50
2022-12-25T00:30:07.863Z,100628.53
2022-12-25T00:32:37.553Z,100630.28
2022-12-25T00:35:05.404Z,100623.59
2022-12-25T00:37:31.938Z,100625.28
2022-12-25T00:39:58.904Z,100634.59
2022-12-25T00:42:26.981Z,100640.38
2022-12-25T00:44:53.505Z,100632.84
2022-12-25T00:47:20.180Z,100634.88
2022-12-25T00:49:46.794Z,100654.31
2022-12-25T00:52:13.537Z,100650.50
2022-12-25T00:54:40.085Z,100661.47
2022-12-25T00:57:06.626Z,100663.31
2022-12-25T00:59:34.419Z,100662.06
2022-12-25T01:02:21.664Z,100646.31
2022-12-25T01:04:49.430Z,100639.94
2022-12-25T01:07:18.793Z,100634.28
2022-12-25T01:10:05.012Z,100638.03
2022-12-25T01:12:33.234Z,100626.19
2022-12-25T01:15:00.922Z,100640.09
2022-12-25T01:17:27.603Z,100628.19
2022-12-25T01:19:54.159Z,100643.09
2022-12-25T01:22:20.695Z,100650.34
2022-12-25T01:24:47.217Z,100660.66
2022-12-25T01:27:13.737Z,100667.56
2022-12-25T01:29:40.388Z,100664.53
2022-12-25T01:32:07.024Z,100664.47
2022-12-25T01:34:34.102Z,100665.94
2022-12-25T01:37:00.648Z,100670.50
2022-12-25T01:39:27.484Z,100672.47
2022-12-25T01:41:53.974Z,100671.41
2022-12-25T01:44:35.536Z,100665.03
2022-12-25T01:47:06.020Z,100665.84
2022-12-25T01:49:36.206Z,100676.22
2022-12-25T01:52:07.387Z,100655.72
2022-12-25T01:54:38.508Z,100672.94
2022-12-25T01:57:09.316Z,100672.31
2022-12-25T01:59:35.858Z,100646.69
2022-12-25T02:02:03.490Z,100651.41
2022-12-25T02:04:39.209Z,100657.19
2022-12-25T02:07:10.502Z,100658.88
2022-12-25T02:09:37.686Z,100648.38
2022-12-25T02:12:05.551Z,100650.00
2022-12-25T02:14:35.302Z,100641.75
2022-12-25T02:17:10.698Z,100644.69
2022-12-25T02:19:57.373Z,100647.63
2022-12-25T02:23:03.296Z,100647.72
2022-12-25T02:25:55.776Z,100645.56
2022-12-25T02:28:36.994Z,100642.41
2022-12-25T02:31:18.326Z,100633.72
2022-12-25T02:34:14.223Z,100637.34
2022-12-25T02:36:47.576Z,100646.34
2022-12-25T02:39:43.432Z,100650.16
2022-12-25T02:42:16.548Z,100639.00
2022-12-25T02:45:04.553Z,100639.63
2022-12-25T02:47:51.562Z,100634.78
2022-12-25T02:50:37.701Z,100637.34
2022-12-25T02:53:24.098Z,100625.50
2022-12-25T02:56:09.741Z,100627.16
2022-12-25T02:58:57.012Z,100620.53
2022-12-25T03:01:46.975Z,100617.91
2022-12-25T03:04:37.083Z,100618.97
2022-12-25T03:07:14.521Z,100624.09
2022-12-25T03:10:03.602Z,100618.06
2022-12-25T03:12:40.967Z,100622.88
2022-12-25T03:15:29.395Z,100620.47
2022-12-25T03:17:59.110Z,100636.34
2022-12-25T03:20:44.330Z,100628.94
2022-12-25T03:23:32.463Z,100636.78
2022-12-25T03:26:17.685Z,100637.88
2022-12-25T03:28:44.121Z,100637.56
2022-12-25T03:31:29.592Z,100641.28
2022-12-25T03:34:17.698Z,100640.69
2022-12-25T03:37:21.148Z,100647.25
2022-12-25T03:40:28.154Z,100633.41
2022-12-25T03:43:26.862Z,100631.66
2022-12-25T03:46:15.654Z,100632.38
2022-12-25T03:49:05.825Z,100630.69
2022-12-25T03:51:54.859Z,100629.81
2022-12-25T03:54:43.114Z,100623.13
2022-12-25T03:57:28.956Z,100615.72
2022-12-25T04:00:15.189Z,100615.41
2022-12-25T04:03:00.484Z,100600.94
2022-12-25T04:05:45.724Z,100598.66
2022-12-25T04:08:33.986Z,100598.09
2022-12-25T04:11:19.175Z,100599.66
2022-12-25T04:14:17.731Z,100597.81
2022-12-25T04:17:02.737Z,100596.44
2022-12-25T04:19:47.875Z,100599.69
2022-12-25T04:22:33.020Z,100590.81
2022-12-25T04:25:18.218Z,100599.19
2022-12-25T04:28:03.355Z,100595.59
2022-12-25T04:30:48.554Z,100596.22
2022-12-25T04:33:33.829Z,100590.31
2022-12-25T04:36:09.399Z,100592.88
2022-12-25T04:38:36.397Z,100592.97
2022-12-25T04:41:03.133Z,100588.78
2022-12-25T04:43:30.120Z,100594.50
2022-12-25T04:45:58.284Z,100590.41
2022-12-25T04:48:26.580Z,100602.09
2022-12-25T04:50:53.891Z,100596.69
2022-12-25T04:53:20.463Z,100581.94
2022-12-25T04:55:46.947Z,100585.09
2022-12-25T04:58:13.625Z,100590.53
2022-12-25T05:00:40.479Z,100601.94
2022-12-25T05:03:07.048Z,100594.56
2022-12-25T05:05:33.622Z,100593.63
2022-12-25T05:08:00.173Z,100578.84
2022-12-25T05:10:26.653Z,100586.31
2022-12-25T05:12:53.131Z,100592.03
2022-12-25T05:15:19.607Z,100583.41
2022-12-25T05:17:46.077Z,100592.44
2022-12-25T05:20:12.695Z,100596.34
2022-12-25T05:22:39.213Z,100610.47
2022-12-25T05:25:06.175Z,100599.84
2022-12-25T05:27:32.721Z,100613.13
2022-12-25T05:29:59.188Z,100599.28
2022-12-25T05:32:25.699Z,100607.22
2022-12-25T05:34:52.193Z,100594.38
2022-12-25T05:37:18.678Z,100601.91
2022-12-25T05:39:45.169Z,100588.78
2022-12-25T05:42:11.679Z,100582.69
2022-12-25T05:44:38.158Z,100586.91
2022-12-25T05:47:04.728Z,100589.59
2022-12-25T05:49:31.569Z,100583.84
2022-12-25T05:51:58.105Z,100583.31
2022-12-25T05:54:24.629Z,100578.47
2022-12-25T05:56:51.197Z,100585.22
2022-12-25T05:59:17.682Z,100583.47
2022-12-25T06:01:44.260Z,100575.91
2022-12-25T06:04:12.881Z,100580.63
2022-12-25T06:06:40.373Z,100581.69
2022-12-25T06:09:06.838Z,100580.63
2022-12-25T06:11:33.393Z,100576.00
2022-12-25T06:13:59.977Z,100579.03
2022-12-25T06:16:26.489Z,100577.16
2022-12-25T06:18:53.095Z,100567.75
2022-12-25T06:21:19.747Z,100574.66
2022-12-25T06:23:46.748Z,100569.09
2022-12-25T06:26:19.070Z,100561.63
2022-12-25T06:28:45.680Z,100562.72
2022-12-25T06:31:18.851Z,100554.31
2022-12-25T06:33:45.613Z,100553.34
2022-12-25T06:36:18.088Z,100545.56
2022-12-25T06:38:44.882Z,100541.97
2022-12-25T06:41:17.241Z,100548.81
2022-12-25T06:43:47.792Z,100559.66
2022-12-25T06:46:14.318Z,100547.72
2022-12-25T06:48:46.745Z,100548.94
2022-12-25T06:51:13.610Z,100549.22
2022-12-25T06:53:40.946Z,100546.38
2022-12-25T06:56:15.917Z,100549.06
2022-12-25T06:58:43.493Z,100526.19
2022-12-25T07:01:17.536Z,100543.13
2022-12-25T07:03:45.429Z,100555.22
2022-12-25T07:06:11.969Z,100557.63
2022-12-25T07:08:38.653Z,100556.47
2022-12-25T07:11:06.682Z,100557.97
2022-12-25T07:13:33.292Z,100551.59
2022-12-25T07:16:02.216Z,100554.19
2022-12-25T07:18:29.745Z,100550.09
2022-12-25T07:20:56.239Z,100548.22
2022-12-25T07:23:23.252Z,100535.53
2022-12-25T07:25:57.347Z,100555.81
2022-12-25T07:28:24.068Z,100552.81
2022-12-25T07:30:50.681Z,100550.38
2022-12-25T07:33:17.457Z,100549.94
2022-12-25T07:35:44.181Z,100552.09
2022-12-25T07:38:11.191Z,100540.59
2022-12-25T07:40:38.548Z,100541.34
2022-12-25T07:43:05.231Z,100541.19
2022-12-25T07:45:31.839Z,100541.72
2022-12-25T07:48:04.321Z,100532.75
2022-12-25T07:50:31.435Z,100528.13
2022-12-25T07:52:58.048Z,100536.63
2022-12-25T07:55:24.561Z,100534.44
2022-12-25T07:57:51.599Z,100546.13
2022-12-25T08:00:18.607Z,100546.66
2022-12-25T08:02:45.453Z,100539.25
2022-12-25T08:05:12.051Z,100543.84
2022-12-25T08:07:38.568Z,100533.69
2022-12-25T08:10:05.649Z,100530.16
2022-12-25T08:12:32.195Z,100542.06
2022-12-25T08:14:58.709Z,100543.63
2022-12-25T08:17:25.249Z,100526.59
2022-12-25T08:19:51.785Z,100521.25
2022-12-25T08:22:18.331Z,100505.91
2022-12-25T08:24:44.830Z,100478.75
2022-12-25T08:27:11.356Z,100482.41
2022-12-25T08:29:37.867Z,100489.38
2022-12-25T08:32:04.514Z,100472.41
2022-12-25T08:34:31.002Z,100485.81
2022-12-25T08:36:57.497Z,100491.00
2022-12-25T08:39:24.331Z,100494.63
2022-12-25T08:41:50.821Z,100506.03
2022-12-25T08:44:17.466Z,100517.88
2022-12-25T08:46:44.110Z,100525.88
2022-12-25T08:49:10.699Z,100496.91
2022-12-25T08:51:37.188Z,100492.44
2022-12-25T08:54:03.884Z,100473.66
2022-12-25T08:56:30.542Z,100459.78
2022-12-25T08:58:57.302Z,100458.63
2022-12-25T09:01:23.880Z,100475.66
2022-12-25T09:03:50.662Z,100484.66
2022-12-25T09:06:18.008Z,100497.66
2022-12-25T09:08:49.190Z,100492.31
2022-12-25T09:11:17.919Z,100512.03
2022-12-25T09:13:44.439Z,100519.47
2022-12-25T09:16:14.555Z,100515.91
2022-12-25T09:18:41.147Z,100515.06
2022-12-25T09:21:11.339Z,100519.63
2022-12-25T09:23:37.937Z,100517.03
2022-12-25T09:26:06.656Z,100526.53
2022-12-25T09:28:33.771Z,100514.94
2022-12-25T09:31:00.957Z,100514.16
2022-12-25T09:33:27.683Z,100511.19
2022-12-25T09:35:58.343Z,100496.34
2022-12-25T09:38:25.337Z,100508.56
2022-12-25T09:41:00.121Z,100509.53
2022-12-25T09:43:28.342Z,100500.75
2022-12-25T09:45:56.273Z,100500.06
2022-12-25T09:48:23.076Z,100497.91
2022-12-25T09:51:16.443Z,100493.00
2022-12-25T09:53:54.428Z,100477.44
2022-12-25T09:56:28.153Z,100472.13
2022-12-25T09:58:54.859Z,100483.78
2022-12-25T10:01:29.338Z,100477.38
2022-12-25T10:04:15.034Z,100490.38
2022-12-25T10:06:48.656Z,100478.88
2022-12-25T10:09:30.984Z,100466.56
2022-12-25T10:12:06.253Z,100449.84
2022-12-25T10:14:57.035Z,100433.09
2022-12-25T10:17:48.486Z,100438.34
2022-12-25T10:20:20.760Z,100425.38
2022-12-25T10:22:54.413Z,100417.25
2022-12-25T10:25:24.068Z,100420.38
2022-12-25T10:28:03.992Z,100407.44
2022-12-25T10:30:31.400Z,100404.50
2022-12-25T10:32:58.479Z,100419.94
2022-12-25T10:35:28.014Z,100422.16
2022-12-25T10:38:01.223Z,100429.50
2022-12-25T10:40:51.143Z,100422.75
2022-12-25T10:43:35.504Z,100425.81
2022-12-25T10:46:08.022Z,100423.28
2022-12-25T10:48:34.612Z,100417.47
2022-12-25T10:51:07.797Z,100397.34
2022-12-25T10:53:43.036Z,100401.19
2022-12-25T10:56:19.482Z,100390.78
2022-12-25T10:58:46.145Z,100398.16
2022-12-25T11:01:13.139Z,100397.69
2022-12-25T11:03:44.987Z,100394.31
2022-12-25T11:06:29.506Z,100389.56
2022-12-25T11:09:01.409Z,100390.00
2022-12-25T11:11:29.872Z,100379.09
2022-12-25T11:13:59.820Z,100373.81
2022-12-25T11:16:35.255Z,100387.53
2022-12-25T11:19:02.671Z,100392.09
2022-12-25T11:21:36.439Z,100385.94
2022-12-25T11:24:05.643Z,100380.25
2022-12-25T11:26:46.990Z,100377.94
2022-12-25T11:29:38.682Z,100382.22
2022-12-25T11:32:12.663Z,100383.34
2022-12-25T11:34:48.521Z,100364.59
2022-12-25T11:37:25.488Z,100381.06
2022-12-25T11:39:52.024Z,100372.22
2022-12-25T11:42:25.497Z,100374.97
2022-12-25T11:45:27.961Z,100373.66
2022-12-25T11:47:59.688Z,100361.84
2022-12-25T11:50:31.887Z,100364.09
2022-12-25T11:53:01.662Z,100360.34
2022-12-25T11:55:54.705Z,100353.94
2022-12-25T11:58:27.607Z,100350.13
2022-12-25T12:00:57.218Z,100350.91
2022-12-25T12:03:32.623Z,100338.69
2022-12-25T12:06:07.155Z,100334.09
2022-12-25T12:08:35.002Z,100326.84
2022-12-25T12:11:17.763Z,100319.59
2022-12-25T12:14:01.720Z,100293.63
2022-12-25T12:16:28.931Z,100286.78
2022-12-25T12:18:55.657Z,100270.72
2022-12-25T12:21:27.205Z,100268.63
2022-12-25T12:24:12.655Z,100266.44
2022-12-25T12:26:42.402Z,100271.72
2022-12-25T12:29:25.048Z,100264.09
2022-12-25T12:31:52.877Z,100275.53
2022-12-25T12:34:23.288Z,100279.91
2022-12-25T12:36:52.408Z,100285.94
2022-12-25T12:39:26.322Z,100287.34
2022-12-25T12:41:53.459Z,100288.47
2022-12-25T12:44:22.810Z,100289.69
2022-12-25T12:46:55.157Z,100274.44
2022-12-25T12:49:32.864Z,100266.28
2022-12-25T12:52:23.868Z,100272.34
2022-12-25T12:55:08.660Z,100275.84
2022-12-25T12:57:40.198Z,100280.13
2022-12-25T13:00:15.689Z,100285.66
2022-12-25T13:03:07.223Z,100277.47
2022-12-25T13:06:00.683Z,100285.78
2022-12-25T13:08:33.476Z,100282.09
2022-12-25T13:11:18.925Z,100268.78
2022-12-25T13:13:47.104Z,100267.59
2022-12-25T13:16:33.271Z,100246.47
2022-12-25T13:19:04.615Z,100249.63
2022-12-25T13:21:31.997Z,100250.75
2022-12-25T13:24:04.737Z,100254.59
2022-12-25T13:26:31.247Z,100254.00
2022-12-25T13:28:59.091Z,100260.25
2022-12-25T13:31:28.260Z,100270.03
2022-12-25T13:34:03.070Z,100270.22
2022-12-25T13:36:35.046Z,100271.16
2022-12-25T13:39:01.774Z,100265.13
2022-12-25T13:41:55.465Z,100254.03
2022-12-25T13:44:27.220Z,100264.16
2022-12-25T13:46:53.701Z,100257.72
2022-12-25T13:49:23.211Z,100239.03
2022-12-25T13:51:50.811Z,100235.63
2022-12-25T13:54:18.979Z,100232.50
2022-12-25T13:56:55.360Z,100226.44
2022-12-25T13:59:25.278Z,100231.03
2022-12-25T14:01:54.004Z,100234.09
2022-12-25T14:04:23.472Z,100240.56
2022-12-25T14:06:52.171Z,100244.38
2022-12-25T14:09:19.415Z,100229.38
2022-12-25T14:11:50.782Z,100233.91
2022-12-25T14:14:20.734Z,100239.28
2022-12-25T14:16:49.417Z,100241.59
2022-12-25T14:19:26.264Z,100254.13
2022-12-25T14:21:59.192Z,100244.59
2022-12-25T14:24:27.161Z,100254.50
2022-12-25T14:26:59.685Z,100241.50
2022-12-25T14:29:29.154Z,100252.94
2022-12-25T14:31:58.257Z,100246.78
2022-12-25T14:34:25.915Z,100249.84
2022-12-25T14:36:53.295Z,100239.25
2022-12-25T14:39:29.668Z,100240.81
2022-12-25T14:41:56.563Z,100241.19
2022-12-25T14:44:34.809Z,100240.16
2022-12-25T14:47:10.355Z,100247.81
2022-12-25T14:49:37.392Z,100252.03
2022-12-25T14:52:20.908Z,100259.66
2022-12-25T14:55:08.241Z,100261.19
2022-12-25T14:57:38.398Z,100267.69
2022-12-25T15:00:18.569Z,100260.41
2022-12-25T15:02:46.533Z,100245.53
2022-12-25T15:05:32.040Z,100245.56
2022-12-25T15:08:09.386Z,100242.50
2022-12-25T15:13:23.516Z,100237.09
2022-12-25T15:16:11.789Z,100239.41
2022-12-25T15:18:41.788Z,100230.25
2022-12-25T15:21:19.578Z,100237.13
2022-12-25T15:23:46.392Z,100236.03
2022-12-25T15:26:14.005Z,100240.22
2022-12-25T15:28:40.609Z,100236.38
2022-12-25T15:31:20.589Z,100248.97
2022-12-25T15:33:47.646Z,100235.97
2022-12-25T15:36:14.335Z,100232.47
2022-12-25T15:38:41.115Z,100241.25
2022-12-25T15:41:37.166Z,100237.13
2022-12-25T15:44:05.621Z,100232.50
2022-12-25T15:46:33.837Z,100227.84
2022-12-25T15:49:00.946Z,100233.25
2022-12-25T15:51:27.731Z,100242.00
2022-12-25T15:53:54.338Z,100233.25
2022-12-25T15:56:22.114Z,100240.88
2022-12-25T15:58:49.181Z,100244.75
2022-12-25T16:01:17.457Z,100246.63
2022-12-25T16:03:44.671Z,100233.25
2022-12-25T16:06:16.926Z,100238.63
2022-12-25T16:08:43.971Z,100239.38
2022-12-25T16:11:10.920Z,100243.22
2022-12-25T16:13:37.720Z,100244.34
2022-12-25T16:16:05.139Z,100252.03
2022-12-25T16:18:31.722Z,100245.88
2022-12-25T16:20:59.346Z,100240.88
2022-12-25T16:23:25.854Z,100230.19
2022-12-25T16:25:52.346Z,100221.59
2022-12-25T16:28:18.890Z,100215.53
2022-12-25T16:30:45.587Z,100208.31
2022-12-25T16:33:12.293Z,100209.06
2022-12-25T16:35:38.817Z,100216.41
2022-12-25T16:38:05.597Z,100208.72
2022-12-25T16:40:32.187Z,100206.75
2022-12-25T16:42:58.898Z,100204.47
2022-12-25T16:45:25.443Z,100201.44
2022-12-25T16:47:51.982Z,100202.25
2022-12-25T16:50:18.658Z,100217.19
2022-12-25T16:52:45.266Z,100217.53
2022-12-25T16:55:11.887Z,100223.22
2022-12-25T16:57:38.439Z,100215.22
2022-12-25T17:00:06.076Z,100214.06
2022-12-25T17:02:33.430Z,100216.69
2022-12-25T17:05:00.886Z,100228.44
2022-12-25T17:07:27.422Z,100234.50
2022-12-25T17:09:53.981Z,100238.22
2022-12-25T17:12:20.459Z,100252.97
2022-12-25T17:14:47.061Z,100262.22
2022-12-25T17:17:13.656Z,100253.63
2022-12-25T17:19:41.353Z,100246.13
2022-12-25T17:22:07.956Z,100239.41
2022-12-25T17:24:36.262Z,100249.84
2022-12-25T17:27:03.835Z,100237.22
2022-12-25T17:29:31.889Z,100239.06
2022-12-25T17:31:58.519Z,100239.72
2022-12-25T17:34:25.239Z,100252.28
2022-12-25T17:36:53.092Z,100251.94
2022-12-25T17:39:19.802Z,100244.28
2022-12-25T17:41:48.527Z,100249.94
2022-12-25T17:44:15.090Z,100255.63
2022-12-25T17:46:42.123Z,100221.22
2022-12-25T17:49:14.728Z,100227.13
2022-12-25T17:51:41.295Z,100212.13
2022-12-25T17:54:08.727Z,100219.03
2022-12-25T17:56:35.408Z,100213.84
2022-12-25T17:59:06.559Z,100200.13
2022-12-25T18:01:33.871Z,100213.59
2022-12-25T18:04:00.726Z,100209.31
2022-12-25T18:06:29.460Z,100210.66
2022-12-25T18:08:57.639Z,100194.22
2022-12-25T18:11:29.038Z,100213.28
2022-12-25T18:13:57.956Z,100229.69
2022-12-25T18:16:26.837Z,100238.41
2022-12-25T18:18:53.893Z,100219.75
2022-12-25T18:21:21.634Z,100216.63
2022-12-25T18:23:48.388Z,100222.66
2022-12-25T18:26:15.003Z,100209.91
2022-12-25T18:28:42.439Z,100214.81
2022-12-25T18:31:22.005Z,100210.63
2022-12-25T18:33:49.296Z,100212.06
2022-12-25T18:36:19.955Z,100211.66
2022-12-25T18:38:47.862Z,100218.09
2022-12-25T18:41:14.593Z,100206.56
2022-12-25T18:43:53.494Z,100208.00
2022-12-25T18:46:26.356Z,100197.78
2022-12-25T18:48:54.991Z,100182.00
2022-12-25T18:51:22.051Z,100185.25
2022-12-25T18:53:48.611Z,100197.38
2022-12-25T18:56:17.192Z,100195.59
2022-12-25T18:58:44.827Z,100193.25
2022-12-25T19:01:20.576Z,100205.50
2022-12-25T19:03:49.062Z,100198.69
2022-12-25T19:06:19.552Z,100194.97
2022-12-25T19:08:46.340Z,100184.19
2022-12-25T19:11:13.205Z,100182.63
2022-12-25T19:13:39.989Z,100186.63
2022-12-25T19:16:06.636Z,100191.81
2022-12-25T19:18:33.252Z,100185.59
2022-12-25T19:21:05.644Z,100192.13
2022-12-25T19:23:32.596Z,100190.97
2022-12-25T19:25:59.383Z,100181.22
2022-12-25T19:28:25.960Z,100176.00
2022-12-25T19:30:54.137Z,100180.59
2022-12-25T19:33:21.822Z,100180.19
2022-12-25T19:35:49.013Z,100184.72
2022-12-25T19:38:16.040Z,100187.38
2022-12-25T19:41:00.144Z,100198.53
2022-12-25T19:43:33.749Z,100198.00
2022-12-25T19:46:01.938Z,100206.41
2022-12-25T19:48:29.690Z,100220.16
2022-12-25T19:50:56.220Z,100206.41
2022-12-25T19:53:23.764Z,100214.06
2022-12-25T19:55:54.529Z,100208.94
2022-12-25T19:58:22.664Z,100194.53
2022-12-25T20:01:05.115Z,100191.94
2022-12-25T20:03:40.211Z,100201.56
2022-12-25T20:06:19.973Z,100192.63
2022-12-25T20:08:47.602Z,100201.88
2022-12-25T20:11:14.864Z,100198.41
2022-12-25T20:13:41.427Z,100194.03
2022-12-25T20:16:10.104Z,100183.72
2022-12-25T20:18:38.029Z,100187.88
2022-12-25T20:21:12.150Z,100189.59
2022-12-25T20:23:38.680Z,100196.16
2022-12-25T20:26:05.518Z,100203.06
2022-12-25T20:28:34.772Z,100207.75
2022-12-25T20:31:09.763Z,100215.28
2022-12-25T20:33:36.587Z,100195.50
2022-12-25T20:36:03.854Z,100189.16
2022-12-25T20:38:30.861Z,100197.03
2022-12-25T20:41:26.235Z,100209.97
2022-12-25T20:43:50.214Z,100203.88
2022-12-25T20:46:16.877Z,100216.81
2022-12-25T20:48:43.927Z,100206.75
2022-12-25T20:51:16.531Z,100215.81
2022-12-25T20:53:43.663Z,100207.91
2022-12-25T20:56:12.051Z,100199.38
2022-12-25T20:58:39.279Z,100203.84
2022-12-25T21:01:10.164Z,100208.47
2022-12-25T21:03:36.918Z,100209.28
2022-12-25T21:06:03.680Z,100211.50
2022-12-25T21:08:30.758Z,100226.09
2022-12-25T21:11:00.844Z,100229.13
2022-12-25T21:13:35.861Z,100230.63
2022-12-25T21:16:06.831Z,100240.41
2022-12-25T21:18:33.607Z,100240.44
2022-12-25T21:21:04.635Z,100245.75
2022-12-25T21:23:31.949Z,100247.34
2022-12-25T21:25:58.474Z,100236.59
2022-12-25T21:28:27.051Z,100245.81
2022-12-25T21:30:53.738Z,100228.19
2022-12-25T21:33:38.961Z,100235.94
2022-12-25T21:36:11.438Z,100244.28
2022-12-25T21:38:38.633Z,100236.28
2022-12-25T21:41:07.954Z,100241.28
2022-12-25T21:43:35.965Z,100240.28
2022-12-25T21:46:04.119Z,100253.53
2022-12-25T21:48:32.251Z,100253.69
2022-12-25T21:51:26.152Z,100257.97
2022-12-25T21:53:53.149Z,100259.47
2022-12-25T21:56:19.706Z,100264.16
2022-12-25T21:58:47.072Z,100275.13
2022-12-25T22:01:16.951Z,100264.31
2022-12-25T22:03:44.618Z,100256.91
2022-12-25T22:06:30.903Z,100264.13
2022-12-25T22:08:57.449Z,100253.81
2022-12-25T22:11:44.705Z,100273.03
2022-12-25T22:14:52.511Z,100278.75
2022-12-25T22:17:49.867Z,100268.88
2022-12-25T22:20:19.498Z,100262.75
2022-12-25T22:22:46.031Z,100260.38
2022-12-25T22:25:13.553Z,100255.63
2022-12-25T22:27:41.542Z,100258.88
2022-12-25T22:30:11.569Z,100263.63
2022-12-25T22:32:38.241Z,100264.41
2022-12-25T22:35:05.638Z,100261.81
2022-12-25T22:37:32.239Z,100266.63
2022-12-25T22:40:00.746Z,100252.25
2022-12-25T22:42:27.355Z,100257.47
2022-12-25T22:44:53.960Z,100259.88
2022-12-25T22:47:20.643Z,100259.38
2022-12-25T22:49:47.277Z,100270.09
2022-12-25T22:52:13.810Z,100265.09
2022-12-25T22:54:40.441Z,100273.47
2022-12-25T22:57:07.052Z,100267.16
2022-12-25T22:59:33.800Z,100275.09
2022-12-25T23:02:01.078Z,100266.78
2022-12-25T23:04:28.332Z,100259.84
2022-12-25T23:06:54.992Z,100257.72
2022-12-25T23:09:27.367Z,100270.59
2022-12-25T23:11:58.857Z,100272.84
2022-12-25T23:14:38.657Z,100291.22
2022-12-25T23:17:27.945Z,100281.63
2022-12-25T23:20:13.750Z,100276.34
2022-12-25T23:22:58.967Z,100270.50
2022-12-25T23:25:44.123Z,100274.41
2022-12-25T23:28:10.944Z,100269.06
2022-12-25T23:30:38.429Z,100288.59
2022-12-25T23:33:04.939Z,100288.19
2022-12-25T23:35:31.600Z,100273.63
2022-12-25T23:37:58.066Z,100282.09
2022-12-25T23:40:24.638Z,100279.22
2022-12-25T23:42:51.147Z,100271.69
2022-12-25T23:45:17.752Z,100262.16
2022-12-25T23:47:44.412Z,100272.75
2022-12-25T23:50:10.945Z,100272.91
2022-12-25T23:52:37.413Z,100273.53
2022-12-25T23:55:04.387Z,100271.22
2022-12-25T23:57:30.987Z,100264.41
2022-12-25T23:59:57.504Z,100263.25
